createdAt,value
2023-06-18T00:01:41.613Z,10.97
2023-06-18T00:04:09.356Z,12.97
2023-06-18T00:06:37.087Z,13.43
2023-06-18T00:09:06.216Z,12.63
2023-06-18T00:11:34.271Z,16.00
2023-06-18T00:14:01.986Z,13.93
2023-06-18T00:16:29.714Z,17.67
2023-06-18T00:18:57.447Z,13.30
2023-06-18T00:21:25.553Z,14.83
2023-06-18T00:23:53.417Z,16.80
2023-06-18T00:26:23.285Z,20.17
2023-06-18T00:28:51.506Z,12.73
2023-06-18T00:31:19.632Z,18.27
2023-06-18T00:33:47.402Z,17.13
2023-06-18T00:36:15.417Z,15.13
2023-06-18T00:38:48.172Z,13.90
2023-06-18T00:41:17.485Z,14.70
2023-06-18T00:43:46.620Z,13.53
2023-06-18T00:46:14.367Z,17.93
2023-06-18T00:48:42.826Z,16.03
2023-06-18T00:51:11.332Z,14.27
2023-06-18T00:53:39.551Z,18.97
2023-06-18T00:56:08.293Z,18.67
2023-06-18T00:58:37.505Z,14.83
2023-06-18T01:01:09.454Z,13.60
2023-06-18T01:03:37.639Z,15.20
2023-06-18T01:06:07.999Z,15.50
2023-06-18T01:08:36.269Z,18.00
2023-06-18T01:11:06.896Z,16.57
2023-06-18T01:13:37.600Z,15.73
2023-06-18T01:16:08.469Z,19.97
2023-06-18T01:18:41.010Z,16.50
2023-06-18T01:21:12.098Z,19.03
2023-06-18T01:23:50.493Z,16.50
2023-06-18T01:26:21.767Z,15.53
2023-06-18T01:28:52.613Z,16.67
2023-06-18T01:31:23.330Z,15.87
2023-06-18T01:33:54.599Z,16.17
2023-06-18T01:36:30.588Z,21.90
2023-06-18T01:39:02.649Z,16.27
2023-06-18T01:41:31.031Z,15.33
2023-06-18T01:44:00.119Z,15.40
2023-06-18T01:46:31.534Z,20.23
2023-06-18T01:49:01.752Z,16.43
2023-06-18T01:51:30.410Z,16.97
2023-06-18T01:53:59.395Z,20.77
2023-06-18T01:56:29.516Z,17.40
2023-06-18T01:58:57.612Z,18.80
2023-06-18T02:01:27.471Z,18.63
2023-06-18T02:03:56.654Z,22.23
2023-06-18T02:06:24.421Z,17.77
2023-06-18T02:08:52.194Z,20.73
2023-06-18T02:11:19.998Z,21.60
2023-06-18T02:13:47.917Z,19.07
2023-06-18T02:16:15.743Z,20.43
2023-06-18T02:18:43.806Z,19.37
2023-06-18T02:21:13.307Z,19.00
2023-06-18T02:23:41.006Z,21.33
2023-06-18T02:26:09.942Z,21.20
2023-06-18T02:28:38.252Z,20.17
2023-06-18T02:31:07.320Z,24.63
2023-06-18T02:33:35.042Z,21.17
2023-06-18T02:36:02.743Z,19.30
2023-06-18T02:38:31.799Z,19.93
2023-06-18T02:40:59.711Z,23.40
2023-06-18T02:43:29.838Z,23.17
2023-06-18T02:45:57.570Z,22.90
2023-06-18T02:48:25.278Z,24.50
2023-06-18T02:50:52.999Z,24.30
2023-06-18T02:53:20.816Z,25.13
2023-06-18T02:55:49.880Z,24.30
2023-06-18T02:58:29.588Z,25.40
2023-06-18T03:00:57.983Z,24.57
2023-06-18T03:03:25.778Z,23.87
2023-06-18T03:05:53.702Z,27.00
2023-06-18T03:08:22.063Z,28.00
2023-06-18T03:10:51.292Z,30.77
2023-06-18T03:13:19.007Z,26.23
2023-06-18T03:15:46.797Z,26.10
2023-06-18T03:18:14.522Z,25.67
2023-06-18T03:20:43.680Z,24.07
2023-06-18T03:23:11.412Z,30.50
2023-06-18T03:25:39.171Z,35.03
2023-06-18T03:28:08.223Z,34.97
2023-06-18T03:30:35.899Z,27.67
2023-06-18T03:33:04.031Z,31.93
2023-06-18T03:35:33.742Z,28.40
2023-06-18T03:38:01.521Z,32.93
2023-06-18T03:40:29.251Z,26.83
2023-06-18T03:42:57.025Z,25.63
2023-06-18T03:45:26.560Z,25.07
2023-06-18T03:47:54.528Z,26.70
2023-06-18T03:52:07.717Z,27.17
2023-06-18T03:54:36.237Z,29.70
2023-06-18T03:57:03.986Z,30.20
2023-06-18T03:59:31.709Z,26.03
2023-06-18T04:01:59.494Z,29.63
2023-06-18T04:04:27.226Z,28.27
2023-06-18T04:06:54.966Z,27.37
2023-06-18T04:09:24.171Z,33.80
2023-06-18T04:11:51.927Z,27.20
2023-06-18T04:14:20.245Z,22.47
2023-06-18T04:16:47.914Z,23.20
2023-06-18T04:19:15.672Z,25.33
2023-06-18T04:21:43.422Z,24.93
2023-06-18T04:24:11.207Z,24.13
2023-06-18T04:26:41.002Z,24.50
2023-06-18T04:29:09.605Z,25.30
2023-06-18T04:31:37.527Z,27.13
2023-06-18T04:34:05.256Z,32.10
2023-06-18T04:36:33.732Z,29.03
2023-06-18T04:39:01.722Z,29.83
2023-06-18T04:41:29.483Z,30.83
2023-06-18T04:43:58.595Z,23.80
2023-06-18T04:46:26.352Z,25.50
2023-06-18T04:48:54.121Z,27.67
2023-06-18T04:51:22.007Z,29.27
2023-06-18T04:53:49.795Z,25.10
2023-06-18T04:56:17.495Z,24.60
2023-06-18T04:58:45.215Z,26.40
2023-06-18T05:01:15.050Z,28.50
2023-06-18T05:03:43.916Z,26.50
2023-06-18T05:06:11.668Z,27.60
2023-06-18T05:08:39.852Z,29.17
2023-06-18T05:11:07.673Z,26.83
2023-06-18T05:13:35.404Z,25.83
2023-06-18T05:16:03.161Z,24.03
2023-06-18T05:18:32.527Z,27.63
2023-06-18T05:21:00.259Z,24.07
2023-06-18T05:23:27.964Z,28.37
2023-06-18T05:25:55.751Z,24.33
2023-06-18T05:28:23.499Z,27.10
2023-06-18T05:30:51.256Z,23.97
2023-06-18T05:33:18.992Z,24.17
2023-06-18T05:35:48.313Z,26.57
2023-06-18T05:38:16.118Z,22.43
2023-06-18T05:40:43.855Z,25.77
2023-06-18T05:43:11.564Z,23.73
2023-06-18T05:45:39.635Z,25.10
2023-06-18T05:48:09.250Z,21.77
2023-06-18T05:50:36.983Z,24.87
2023-06-18T05:53:06.101Z,23.63
2023-06-18T05:55:34.514Z,25.87
2023-06-18T05:58:02.356Z,25.57
2023-06-18T06:00:30.162Z,23.43
2023-06-18T06:02:58.012Z,24.63
2023-06-18T06:05:25.974Z,20.77
2023-06-18T06:07:53.743Z,22.87
2023-06-18T06:10:24.296Z,19.40
2023-06-18T06:12:52.266Z,19.20
2023-06-18T06:15:20.101Z,20.23
2023-06-18T06:17:48.387Z,19.50
2023-06-18T06:20:16.228Z,20.33
2023-06-18T06:22:43.930Z,25.40
2023-06-18T06:25:11.699Z,19.13
2023-06-18T06:27:42.867Z,20.97
2023-06-18T06:30:11.504Z,23.27
2023-06-18T06:32:39.267Z,21.83
2023-06-18T06:35:07.796Z,22.40
2023-06-18T06:37:35.494Z,21.17
2023-06-18T06:40:03.926Z,19.93
2023-06-18T06:42:32.019Z,20.40
2023-06-18T06:45:01.424Z,20.57
2023-06-18T06:47:29.179Z,15.60
2023-06-18T06:49:56.960Z,21.53
2023-06-18T06:52:24.735Z,23.20
2023-06-18T06:54:52.704Z,17.83
2023-06-18T06:57:20.757Z,19.63
2023-06-18T06:59:48.446Z,18.03
2023-06-18T07:02:17.567Z,16.40
2023-06-18T07:04:49.030Z,17.43
2023-06-18T07:07:17.301Z,18.90
2023-06-18T07:09:45.029Z,21.77
2023-06-18T07:12:12.824Z,17.33
2023-06-18T07:14:40.601Z,15.67
2023-06-18T07:17:08.346Z,20.30
2023-06-18T07:19:37.459Z,20.87
2023-06-18T07:22:05.813Z,18.87
2023-06-18T07:24:33.612Z,17.67
2023-06-18T07:27:01.341Z,22.73
2023-06-18T07:29:29.052Z,18.83
2023-06-18T07:31:56.797Z,18.83
2023-06-18T07:34:24.511Z,19.57
2023-06-18T07:36:53.559Z,19.67
2023-06-18T07:39:22.682Z,24.40
2023-06-18T07:41:50.902Z,21.70
2023-06-18T07:44:18.937Z,18.53
2023-06-18T07:46:46.740Z,16.47
2023-06-18T07:49:14.525Z,21.33
2023-06-18T07:51:42.285Z,18.10
2023-06-18T07:54:11.440Z,22.03
2023-06-18T07:56:39.206Z,17.63
2023-06-18T07:59:06.961Z,18.80
2023-06-18T08:01:34.862Z,17.67
2023-06-18T08:04:02.696Z,19.57
2023-06-18T08:06:30.426Z,20.33
2023-06-18T08:08:58.146Z,18.87
2023-06-18T08:11:27.342Z,16.37
2023-06-18T08:13:55.103Z,19.13
2023-06-18T08:16:24.108Z,16.07
2023-06-18T08:18:54.026Z,16.60
2023-06-18T08:21:23.017Z,14.13
2023-06-18T08:23:50.724Z,20.03
2023-06-18T08:26:20.281Z,15.23
2023-06-18T08:28:49.408Z,15.83
2023-06-18T08:31:18.122Z,16.27
2023-06-18T08:33:46.147Z,16.93
2023-06-18T08:36:13.876Z,16.77
2023-06-18T08:38:41.601Z,14.60
2023-06-18T08:41:11.009Z,13.33
2023-06-18T08:43:39.314Z,19.70
2023-06-18T08:46:11.619Z,10.20
2023-06-18T08:48:45.735Z,11.33
2023-06-18T08:51:13.783Z,15.30
2023-06-18T08:53:44.047Z,15.67
2023-06-18T08:56:12.000Z,13.03
2023-06-18T08:58:45.423Z,11.63
2023-06-18T09:01:14.574Z,11.40
2023-06-18T09:03:43.182Z,12.83
2023-06-18T09:06:11.109Z,10.77
2023-06-18T09:08:39.629Z,10.63
2023-06-18T09:11:07.852Z,10.10
2023-06-18T09:13:36.042Z,9.07
2023-06-18T09:16:03.793Z,11.63
2023-06-18T09:18:32.994Z,10.87
2023-06-18T09:21:00.708Z,9.63
2023-06-18T09:23:28.491Z,10.07
2023-06-18T09:25:57.318Z,11.47
2023-06-18T09:28:26.611Z,15.03
2023-06-18T09:30:55.852Z,10.70
2023-06-18T09:33:29.731Z,11.83
2023-06-18T09:36:03.529Z,10.10
2023-06-18T09:38:38.289Z,9.10
2023-06-18T09:41:14.326Z,11.50
2023-06-18T09:43:44.365Z,10.47
2023-06-18T09:46:12.883Z,9.97
2023-06-18T09:48:42.813Z,9.70
2023-06-18T09:51:12.221Z,9.27
2023-06-18T09:53:39.975Z,10.53
2023-06-18T09:56:12.564Z,9.83
2023-06-18T09:58:42.435Z,8.57
2023-06-18T10:01:10.321Z,8.53
2023-06-18T10:03:38.274Z,7.37
2023-06-18T10:06:13.770Z,10.60
2023-06-18T10:08:44.597Z,11.63
2023-06-18T10:11:12.723Z,6.83
2023-06-18T10:13:44.365Z,10.27
2023-06-18T10:16:15.017Z,9.57
2023-06-18T10:18:49.891Z,7.83
2023-06-18T10:21:20.130Z,7.90
2023-06-18T10:23:48.872Z,8.00
2023-06-18T10:26:16.580Z,9.43
2023-06-18T10:28:44.272Z,9.57
2023-06-18T10:31:12.141Z,9.70
2023-06-18T10:33:40.114Z,10.03
2023-06-18T10:36:07.954Z,7.93
2023-06-18T10:38:37.823Z,11.27
2023-06-18T10:41:11.378Z,9.60
2023-06-18T10:43:42.628Z,7.33
2023-06-18T10:46:11.892Z,10.23
2023-06-18T10:48:39.881Z,8.90
2023-06-18T10:51:17.716Z,8.57
2023-06-18T10:53:48.098Z,7.70
2023-06-18T10:56:18.859Z,8.57
2023-06-18T10:58:46.606Z,8.53
2023-06-18T11:01:27.303Z,8.83
2023-06-18T11:04:03.355Z,9.13
2023-06-18T11:06:31.956Z,10.75
2023-06-18T11:09:01.073Z,9.75
2023-06-18T11:11:33.072Z,6.60
2023-06-18T11:14:20.220Z,6.88
2023-06-18T11:17:11.952Z,9.88
2023-06-18T11:19:39.830Z,9.20
2023-06-18T11:22:08.236Z,6.97
2023-06-18T11:24:37.689Z,6.22
2023-06-18T11:27:07.016Z,6.40
2023-06-18T11:29:34.822Z,8.65
2023-06-18T11:32:02.598Z,7.57
2023-06-18T11:34:31.156Z,8.07
2023-06-18T11:36:58.972Z,6.40
2023-06-18T11:39:26.846Z,7.67
2023-06-18T11:41:55.928Z,11.85
2023-06-18T11:44:26.698Z,7.70
2023-06-18T11:46:54.594Z,14.10
2023-06-18T11:49:22.427Z,7.50
2023-06-18T11:51:50.159Z,8.32
2023-06-18T11:54:17.931Z,6.50
2023-06-18T11:56:46.639Z,7.20
2023-06-18T11:59:15.800Z,10.20
2023-06-18T12:01:43.694Z,9.65
2023-06-18T12:04:11.481Z,9.45
2023-06-18T12:06:39.668Z,7.77
2023-06-18T12:09:08.679Z,8.60
2023-06-18T12:11:44.250Z,6.83
2023-06-18T12:14:17.311Z,7.47
2023-06-18T12:16:47.405Z,7.73
2023-06-18T12:19:16.057Z,8.83
2023-06-18T12:21:43.823Z,7.87
2023-06-18T12:24:11.629Z,7.07
2023-06-18T12:26:39.388Z,6.50
2023-06-18T12:29:08.226Z,6.88
2023-06-18T12:31:37.634Z,9.70
2023-06-18T12:34:05.413Z,7.65
2023-06-18T12:36:33.146Z,8.40
2023-06-18T12:39:00.943Z,6.07
2023-06-18T12:41:30.655Z,9.53
2023-06-18T12:43:58.361Z,5.82
2023-06-18T12:46:27.114Z,7.43
2023-06-18T12:48:58.546Z,7.53
2023-06-18T12:51:41.044Z,9.82
2023-06-18T12:54:14.679Z,11.10
2023-06-18T12:56:48.870Z,6.55
2023-06-18T12:59:18.339Z,8.15
2023-06-18T13:01:46.980Z,10.43
2023-06-18T13:04:17.422Z,10.25
2023-06-18T13:06:46.229Z,7.82
2023-06-18T13:09:14.057Z,6.35
2023-06-18T13:11:41.807Z,7.97
2023-06-18T13:14:18.157Z,7.90
2023-06-18T13:16:50.107Z,8.60
2023-06-18T13:19:19.182Z,7.00
2023-06-18T13:21:46.982Z,8.18
2023-06-18T13:24:14.795Z,6.90
2023-06-18T13:26:42.973Z,6.97
2023-06-18T13:29:10.755Z,7.75
2023-06-18T13:31:39.280Z,6.47
2023-06-18T13:34:07.490Z,9.77
2023-06-18T13:36:36.621Z,8.23
2023-06-18T13:39:04.449Z,6.47
2023-06-18T13:41:32.224Z,8.18
2023-06-18T13:43:59.947Z,8.00
2023-06-18T13:46:27.810Z,9.43
2023-06-18T13:48:55.561Z,7.00
2023-06-18T13:51:23.326Z,8.77
2023-06-18T13:53:52.394Z,8.32
2023-06-18T13:56:20.219Z,7.68
2023-06-18T13:58:47.922Z,6.80
2023-06-18T14:01:15.685Z,8.75
2023-06-18T14:03:43.500Z,7.63
2023-06-18T14:06:11.276Z,9.95
2023-06-18T14:08:42.614Z,13.10
2023-06-18T14:11:11.999Z,8.40
2023-06-18T14:13:39.695Z,10.15
2023-06-18T14:16:10.237Z,6.43
2023-06-18T14:18:40.347Z,8.35
2023-06-18T14:21:08.102Z,6.70
2023-06-18T14:23:35.837Z,6.77
2023-06-18T14:26:03.741Z,6.33
2023-06-18T14:28:32.886Z,14.10
2023-06-18T14:31:00.875Z,8.50
2023-06-18T14:33:28.955Z,10.10
2023-06-18T14:35:56.708Z,7.00
2023-06-18T14:38:24.448Z,9.17
2023-06-18T14:40:52.309Z,10.63
2023-06-18T14:43:20.039Z,7.37
2023-06-18T14:45:49.155Z,7.17
2023-06-18T14:48:16.950Z,10.80
2023-06-18T14:50:45.436Z,8.37
2023-06-18T14:53:13.444Z,7.17
2023-06-18T14:55:41.233Z,7.33
2023-06-18T14:58:09.029Z,7.03
2023-06-18T15:00:37.038Z,6.50
2023-06-18T15:03:06.299Z,7.27
2023-06-18T15:05:34.171Z,10.37
2023-06-18T15:08:01.885Z,8.53
2023-06-18T15:10:29.618Z,6.67
2023-06-18T15:12:57.289Z,12.33
2023-06-18T15:15:26.694Z,15.97
2023-06-18T15:17:54.549Z,7.67
2023-06-18T15:20:24.760Z,9.33
2023-06-18T15:22:52.568Z,8.83
2023-06-18T15:25:20.592Z,8.03
2023-06-18T15:27:48.576Z,9.30
2023-06-18T15:30:16.964Z,7.80
2023-06-18T15:32:44.687Z,13.23
2023-06-18T15:35:12.499Z,11.47
2023-06-18T15:37:41.552Z,20.00
2023-06-18T15:40:10.006Z,9.17
2023-06-18T15:42:37.750Z,8.23
2023-06-18T15:45:06.428Z,10.80
2023-06-18T15:47:34.151Z,10.50
2023-06-18T15:50:01.933Z,7.17
2023-06-18T15:52:29.642Z,8.37
2023-06-18T15:54:58.991Z,8.40
2023-06-18T15:57:26.726Z,14.00
2023-06-18T15:59:54.454Z,7.50
2023-06-18T16:02:22.530Z,8.40
2023-06-18T16:04:50.548Z,6.37
2023-06-18T16:07:18.823Z,7.13
2023-06-18T16:09:46.563Z,8.33
2023-06-18T16:12:15.992Z,8.37
2023-06-18T16:14:43.744Z,8.20
2023-06-18T16:17:12.877Z,6.23
2023-06-18T16:19:40.551Z,7.10
2023-06-18T16:22:08.346Z,9.47
2023-06-18T16:24:37.090Z,9.97
2023-06-18T16:27:05.821Z,7.20
2023-06-18T16:29:35.469Z,5.43
2023-06-18T16:32:03.239Z,5.63
2023-06-18T16:34:30.994Z,6.17
2023-06-18T16:36:58.753Z,6.23
2023-06-18T16:39:27.092Z,6.60
2023-06-18T16:41:54.892Z,5.27
2023-06-18T16:44:22.674Z,5.00
2023-06-18T16:46:54.158Z,5.20
2023-06-18T16:49:21.938Z,6.27
2023-06-18T16:51:49.678Z,5.80
2023-06-18T16:54:17.381Z,6.73
2023-06-18T16:56:49.480Z,6.83
2023-06-18T16:59:18.082Z,6.53
2023-06-18T17:01:45.873Z,6.27
2023-06-18T17:04:15.254Z,7.00
2023-06-18T17:06:43.157Z,8.60
2023-06-18T17:09:11.971Z,5.73
2023-06-18T17:11:39.724Z,9.77
2023-06-18T17:14:07.560Z,9.37
2023-06-18T17:16:35.382Z,10.23
2023-06-18T17:19:03.119Z,12.37
2023-06-18T17:21:32.248Z,8.33
2023-06-18T17:24:02.986Z,9.37
2023-06-18T17:26:32.603Z,8.70
2023-06-18T17:29:00.543Z,9.40
2023-06-18T17:31:28.420Z,8.93
2023-06-18T17:33:56.199Z,10.03
2023-06-18T17:36:23.984Z,15.30
2023-06-18T17:38:53.325Z,15.30
2023-06-18T17:41:21.387Z,10.17
2023-06-18T17:43:49.088Z,13.73
2023-06-18T17:46:17.894Z,7.67
2023-06-18T17:48:48.533Z,7.30
2023-06-18T17:51:17.124Z,8.50
2023-06-18T17:53:45.939Z,8.47
2023-06-18T17:56:15.314Z,10.17
2023-06-18T17:58:43.055Z,9.93
2023-06-18T18:01:12.324Z,10.90
2023-06-18T18:03:41.621Z,11.50
2023-06-18T18:06:11.795Z,8.47
2023-06-18T18:08:39.536Z,11.67
2023-06-18T18:11:07.284Z,13.67
2023-06-18T18:13:36.381Z,8.43
2023-06-18T18:16:04.242Z,9.33
2023-06-18T18:18:32.012Z,9.70
2023-06-18T18:20:59.782Z,10.20
2023-06-18T18:23:27.601Z,8.33
2023-06-18T18:26:02.537Z,7.20
2023-06-18T18:28:38.790Z,10.87
2023-06-18T18:31:06.722Z,9.20
2023-06-18T18:33:34.579Z,9.63
2023-06-18T18:36:02.360Z,8.33
2023-06-18T18:38:30.259Z,9.73
2023-06-18T18:40:58.056Z,7.80
2023-06-18T18:43:26.191Z,8.93
2023-06-18T18:45:55.370Z,9.40
2023-06-18T18:48:23.120Z,10.07
2023-06-18T18:50:50.951Z,10.33
2023-06-18T18:53:18.713Z,8.50
2023-06-18T18:55:46.560Z,10.70
2023-06-18T18:58:14.385Z,10.80
2023-06-18T19:00:42.395Z,11.57
2023-06-18T19:03:12.169Z,9.33
2023-06-18T19:05:40.116Z,15.37
2023-06-18T19:08:08.133Z,7.83
2023-06-18T19:10:35.988Z,12.80
2023-06-18T19:13:04.944Z,9.03
2023-06-18T19:15:34.595Z,10.20
2023-06-18T19:18:02.453Z,13.83
2023-06-18T19:20:31.854Z,11.53
2023-06-18T19:22:59.547Z,9.87
2023-06-18T19:25:27.591Z,10.53
2023-06-18T19:27:56.748Z,8.23
2023-06-18T19:30:24.827Z,10.87
2023-06-18T19:32:52.921Z,8.87
2023-06-18T19:35:20.686Z,9.40
2023-06-18T19:37:49.731Z,9.33
2023-06-18T19:40:17.512Z,8.63
2023-06-18T19:42:46.533Z,10.20
2023-06-18T19:45:15.374Z,10.80
2023-06-18T19:47:43.262Z,9.40
2023-06-18T19:50:11.961Z,9.00
2023-06-18T19:52:39.712Z,10.80
2023-06-18T19:55:09.734Z,10.30
2023-06-18T19:57:37.606Z,13.60
2023-06-18T20:00:06.641Z,8.17
2023-06-18T20:02:34.448Z,9.90
2023-06-18T20:05:02.180Z,10.23
2023-06-18T20:07:29.932Z,11.40
2023-06-18T20:09:57.783Z,12.27
2023-06-18T20:12:26.907Z,13.40
2023-06-18T20:14:54.613Z,10.13
2023-06-18T20:17:24.310Z,10.37
2023-06-18T20:19:53.161Z,9.47
2023-06-18T20:22:21.496Z,9.97
2023-06-18T20:24:49.226Z,10.50
2023-06-18T20:27:16.960Z,9.97
2023-06-18T20:29:46.842Z,8.93
2023-06-18T20:32:14.726Z,10.10
2023-06-18T20:34:42.431Z,8.93
2023-06-18T20:37:11.079Z,9.00
2023-06-18T20:39:38.956Z,9.10
2023-06-18T20:42:07.255Z,10.70
2023-06-18T20:44:34.983Z,11.50
2023-06-18T20:47:04.165Z,10.83
2023-06-18T20:49:31.915Z,10.50
2023-06-18T20:51:59.611Z,9.17
2023-06-18T20:54:27.280Z,11.90
2023-06-18T20:56:55.061Z,10.10
2023-06-18T20:59:22.783Z,12.27
2023-06-18T21:01:51.422Z,12.90
2023-06-18T21:04:20.985Z,11.23
2023-06-18T21:06:48.748Z,10.73
2023-06-18T21:09:16.574Z,11.40
2023-06-18T21:11:44.316Z,13.10
2023-06-18T21:14:12.063Z,11.20
2023-06-18T21:16:39.809Z,9.47
2023-06-18T21:19:07.576Z,10.17
2023-06-18T21:21:36.724Z,10.10
2023-06-18T21:24:04.804Z,10.90
2023-06-18T21:26:32.555Z,11.77
2023-06-18T21:29:00.358Z,12.73
2023-06-18T21:31:28.075Z,11.60
2023-06-18T21:33:55.779Z,12.70
2023-06-18T21:36:23.528Z,12.00
2023-06-18T21:38:52.606Z,12.80
2023-06-18T21:41:20.394Z,15.50
2023-06-18T21:43:48.107Z,12.63
2023-06-18T21:46:15.910Z,11.00
2023-06-18T21:48:43.675Z,18.67
2023-06-18T21:51:11.380Z,13.30
2023-06-18T21:53:39.177Z,9.83
2023-06-18T21:56:08.335Z,10.33
2023-06-18T21:58:36.080Z,12.43
2023-06-18T22:01:04.585Z,9.57
2023-06-18T22:03:32.579Z,15.27
2023-06-18T22:06:00.499Z,13.90
2023-06-18T22:08:39.851Z,10.30
2023-06-18T22:11:08.986Z,11.30
2023-06-18T22:13:36.691Z,13.90
2023-06-18T22:16:04.486Z,9.73
2023-06-18T22:18:32.217Z,12.10
2023-06-18T22:20:59.941Z,10.83
2023-06-18T22:23:27.682Z,13.00
2023-06-18T22:25:55.480Z,10.83
2023-06-18T22:28:24.706Z,10.17
2023-06-18T22:30:53.805Z,11.30
2023-06-18T22:33:21.530Z,12.53
2023-06-18T22:35:49.270Z,10.07
2023-06-18T22:38:16.989Z,9.53
2023-06-18T22:40:44.736Z,9.43
2023-06-18T22:43:12.502Z,11.73
2023-06-18T22:45:41.628Z,10.33
2023-06-18T22:48:09.540Z,10.90
2023-06-18T22:50:38.633Z,9.27
2023-06-18T22:53:06.493Z,9.20
2023-06-18T22:55:35.380Z,11.80
2023-06-18T22:58:03.263Z,11.17
2023-06-18T23:00:31.078Z,8.23
2023-06-18T23:03:00.217Z,10.53
2023-06-18T23:05:27.953Z,8.90
2023-06-18T23:07:55.770Z,9.10
2023-06-18T23:10:24.141Z,8.53
2023-06-18T23:12:52.254Z,10.77
2023-06-18T23:15:19.964Z,9.57
2023-06-18T23:17:49.365Z,9.80
2023-06-18T23:20:18.674Z,7.90
2023-06-18T23:22:49.227Z,9.80
2023-06-18T23:25:17.057Z,8.40
2023-06-18T23:27:44.818Z,10.30
2023-06-18T23:30:13.118Z,9.53
2023-06-18T23:32:41.129Z,12.93
2023-06-18T23:35:09.603Z,9.37
2023-06-18T23:37:40.329Z,8.03
2023-06-18T23:40:10.524Z,9.00
2023-06-18T23:42:38.442Z,12.63
2023-06-18T23:45:07.356Z,8.10
2023-06-18T23:47:35.254Z,9.87
2023-06-18T23:50:03.066Z,10.70
2023-06-18T23:52:30.776Z,12.27
2023-06-18T23:54:59.866Z,11.17
2023-06-18T23:57:28.065Z,8.33
2023-06-18T23:59:55.897Z,9.40
